createdAt,value
2022-08-22T00:01:33.170Z,6.90
2022-08-22T00:02:53.534Z,5.17
2022-08-22T00:03:00.231Z,2.80
2022-08-22T00:03:45.650Z,5.90
2022-08-22T00:06:24.934Z,5.53
2022-08-22T00:08:47.275Z,5.87
2022-08-22T00:10:57.739Z,5.33
2022-08-22T00:13:10.868Z,6.20
2022-08-22T00:15:42.847Z,5.80
2022-08-22T00:17:51.331Z,5.83
2022-08-22T00:20:08.713Z,6.10
2022-08-22T00:22:26.560Z,6.17
2022-08-22T00:24:55.303Z,5.63
2022-08-22T00:27:04.863Z,6.40
2022-08-22T00:29:14.357Z,6.43
2022-08-22T00:31:24.826Z,6.23
2022-08-22T00:33:42.282Z,6.30
2022-08-22T00:35:49.711Z,6.27
2022-08-22T00:38:02.930Z,5.80
2022-08-22T00:40:31.631Z,5.60
2022-08-22T00:42:45.899Z,6.10
2022-08-22T00:44:54.012Z,6.73
2022-08-22T00:47:06.346Z,7.10
2022-08-22T00:49:19.753Z,5.70
2022-08-22T00:52:00.504Z,5.37
2022-08-22T00:54:18.276Z,4.80
2022-08-22T00:56:47.978Z,5.50
2022-08-22T00:59:18.072Z,6.13
2022-08-22T01:01:33.685Z,6.43
2022-08-22T01:03:44.728Z,6.13
2022-08-22T01:06:24.894Z,6.13
2022-08-22T01:08:46.793Z,6.43
2022-08-22T01:10:55.835Z,6.50
2022-08-22T01:13:16.851Z,5.73
2022-08-22T01:15:27.506Z,6.20
2022-08-22T01:17:35.269Z,7.10
2022-08-22T01:19:49.340Z,6.40
2022-08-22T01:22:01.199Z,6.47
2022-08-22T01:24:31.302Z,6.07
2022-08-22T01:27:00.318Z,5.50
2022-08-22T01:29:11.313Z,5.97
2022-08-22T01:31:49.609Z,5.77
2022-08-22T01:34:30.214Z,4.87
2022-08-22T01:36:50.997Z,5.63
2022-08-22T01:39:23.687Z,4.93
2022-08-22T01:41:44.337Z,6.60
2022-08-22T01:44:24.335Z,5.90
2022-08-22T01:46:35.365Z,6.20
2022-08-22T01:48:44.593Z,6.20
2022-08-22T01:50:58.040Z,6.50
2022-08-22T01:53:16.711Z,6.03
2022-08-22T01:55:26.575Z,5.53
2022-08-22T01:57:29.039Z,6.37
2022-08-22T01:59:42.452Z,6.00
2022-08-22T02:01:52.553Z,6.40
2022-08-22T02:04:06.362Z,6.73
2022-08-22T02:06:17.399Z,5.37
2022-08-22T02:08:28.318Z,6.50
2022-08-22T02:11:09.154Z,6.07
2022-08-22T02:13:42.231Z,6.33
2022-08-22T02:15:54.531Z,4.90
2022-08-22T02:18:12.647Z,5.40
2022-08-22T02:20:24.557Z,5.80
2022-08-22T02:22:31.716Z,7.07
2022-08-22T02:24:33.668Z,6.20
2022-08-22T02:26:50.051Z,6.53
2022-08-22T02:29:05.322Z,5.93
2022-08-22T02:31:19.792Z,6.33
2022-08-22T02:33:29.094Z,7.00
2022-08-22T02:35:37.722Z,6.67
2022-08-22T02:37:48.618Z,6.13
2022-08-22T02:40:25.436Z,6.23
2022-08-22T02:42:35.737Z,5.83
2022-08-22T02:44:51.154Z,5.97
2022-08-22T02:47:00.283Z,5.90
2022-08-22T02:49:04.974Z,5.50
2022-08-22T02:51:35.874Z,5.73
2022-08-22T02:54:11.469Z,6.30
2022-08-22T02:56:18.994Z,6.03
2022-08-22T02:58:45.470Z,5.80
2022-08-22T03:00:52.808Z,6.20
2022-08-22T03:03:24.472Z,6.10
2022-08-22T03:05:37.493Z,5.57
2022-08-22T03:07:41.705Z,6.67
2022-08-22T03:10:10.250Z,6.20
2022-08-22T03:12:45.126Z,6.20
2022-08-22T03:14:50.519Z,6.50
2022-08-22T03:16:58.357Z,6.47
2022-08-22T03:19:14.848Z,6.50
2022-08-22T03:21:27.109Z,6.07
2022-08-22T03:24:04.020Z,5.87
2022-08-22T03:26:18.143Z,5.97
2022-08-22T03:28:26.215Z,6.50
2022-08-22T03:30:34.790Z,6.20
2022-08-22T03:32:59.437Z,6.10
2022-08-22T03:35:04.586Z,6.77
2022-08-22T03:37:19.199Z,6.53
2022-08-22T03:39:38.522Z,7.00
2022-08-22T03:41:50.068Z,6.70
2022-08-22T03:43:54.618Z,7.20
2022-08-22T03:46:05.366Z,6.57
2022-08-22T03:48:38.796Z,6.80
2022-08-22T03:51:18.354Z,6.80
2022-08-22T03:53:54.851Z,8.13
2022-08-22T03:56:26.279Z,7.00
2022-08-22T03:58:53.307Z,7.00
2022-08-22T04:01:24.303Z,7.23
2022-08-22T04:03:41.641Z,6.77
2022-08-22T04:05:49.432Z,7.00
2022-08-22T04:08:04.441Z,7.17
2022-08-22T04:10:44.780Z,7.17
2022-08-22T04:13:24.909Z,7.33
2022-08-22T04:15:43.578Z,7.90
2022-08-22T04:17:48.536Z,8.43
2022-08-22T04:20:20.944Z,7.90
2022-08-22T04:22:40.692Z,8.10
2022-08-22T04:24:52.210Z,7.77
2022-08-22T04:27:34.759Z,7.63
2022-08-22T04:29:48.995Z,8.60
2022-08-22T04:32:09.801Z,7.70
2022-08-22T04:34:38.023Z,8.70
2022-08-22T04:36:46.041Z,7.87
2022-08-22T04:38:53.861Z,7.50
2022-08-22T04:41:07.849Z,8.20
2022-08-22T04:43:36.131Z,7.73
2022-08-22T04:45:43.923Z,8.67
2022-08-22T04:48:10.389Z,8.07
2022-08-22T04:50:23.759Z,7.90
2022-08-22T04:52:40.291Z,8.80
2022-08-22T04:55:27.116Z,8.30
2022-08-22T04:57:53.430Z,8.13
2022-08-22T05:00:06.046Z,8.70
2022-08-22T05:02:11.042Z,8.80
2022-08-22T05:04:38.568Z,8.27
2022-08-22T05:06:44.803Z,8.73
2022-08-22T05:08:48.413Z,7.73
2022-08-22T05:10:56.654Z,7.90
2022-08-22T05:13:04.384Z,8.43
2022-08-22T05:15:13.842Z,8.87
2022-08-22T05:17:21.238Z,8.70
2022-08-22T05:19:34.971Z,8.40
2022-08-22T05:21:39.472Z,8.00
2022-08-22T05:23:49.856Z,10.10
2022-08-22T05:25:54.430Z,9.27
2022-08-22T05:28:11.875Z,9.90
2022-08-22T05:30:21.107Z,8.20
2022-08-22T05:32:29.110Z,8.97
2022-08-22T05:34:36.538Z,7.70
2022-08-22T05:36:44.631Z,7.70
2022-08-22T05:39:09.636Z,7.73
2022-08-22T05:41:20.310Z,8.30
2022-08-22T05:43:24.975Z,8.30
2022-08-22T05:45:28.479Z,8.70
2022-08-22T05:47:49.351Z,8.10
2022-08-22T05:49:54.302Z,7.60
2022-08-22T05:52:08.185Z,8.10
2022-08-22T05:54:34.238Z,7.00
2022-08-22T05:56:41.899Z,7.33
2022-08-22T05:58:51.439Z,7.20
2022-08-22T06:01:07.536Z,7.73
2022-08-22T06:03:44.838Z,7.50
2022-08-22T06:05:52.013Z,6.27
2022-08-22T06:08:01.461Z,7.10
2022-08-22T06:10:40.810Z,6.53
2022-08-22T06:12:57.589Z,6.00
2022-08-22T06:15:29.555Z,6.07
2022-08-22T06:17:35.918Z,6.00
2022-08-22T06:19:41.037Z,7.37
2022-08-22T06:21:44.521Z,6.47
2022-08-22T06:23:57.516Z,5.87
2022-08-22T06:26:00.626Z,5.50
2022-08-22T06:28:12.655Z,6.40
2022-08-22T06:30:16.627Z,6.10
2022-08-22T06:32:59.159Z,5.73
2022-08-22T06:35:07.120Z,6.40
2022-08-22T06:37:17.044Z,5.67
2022-08-22T06:39:23.101Z,6.20
2022-08-22T06:41:27.315Z,5.80
2022-08-22T06:43:39.847Z,6.10
2022-08-22T06:45:42.090Z,6.07
2022-08-22T06:48:00.228Z,5.37
2022-08-22T06:50:07.413Z,6.43
2022-08-22T06:52:23.312Z,6.67
2022-08-22T06:54:30.410Z,5.57
2022-08-22T06:56:45.175Z,6.00
2022-08-22T06:58:48.907Z,5.60
2022-08-22T07:01:05.732Z,6.00
2022-08-22T07:03:31.910Z,6.20
2022-08-22T07:05:40.006Z,5.43
2022-08-22T07:07:42.247Z,5.87
2022-08-22T07:09:50.489Z,5.50
2022-08-22T07:11:54.290Z,5.60
2022-08-22T07:13:59.221Z,5.80
2022-08-22T07:16:06.844Z,5.60
2022-08-22T07:18:21.340Z,5.27
2022-08-22T07:20:41.990Z,5.50
2022-08-22T07:22:54.267Z,5.27
2022-08-22T07:25:08.202Z,5.50
2022-08-22T07:27:22.666Z,5.63
2022-08-22T07:29:34.158Z,4.57
2022-08-22T07:32:08.761Z,4.40
2022-08-22T07:34:39.887Z,4.27
2022-08-22T07:37:06.680Z,4.37
2022-08-22T07:39:14.623Z,5.20
2022-08-22T07:41:26.556Z,4.97
2022-08-22T07:43:31.451Z,5.60
2022-08-22T07:45:38.187Z,4.93
2022-08-22T07:47:46.029Z,4.87
2022-08-22T07:49:56.674Z,4.60
2022-08-22T07:52:01.841Z,3.93
2022-08-22T07:54:08.131Z,4.07
2022-08-22T07:56:24.155Z,4.60
2022-08-22T07:58:29.547Z,4.13
2022-08-22T08:00:32.685Z,4.60
2022-08-22T08:02:34.848Z,4.00
2022-08-22T08:04:40.537Z,3.90
2022-08-22T08:06:42.846Z,3.70
2022-08-22T08:08:45.242Z,3.60
2022-08-22T08:10:48.349Z,4.53
2022-08-22T08:13:01.792Z,4.00
2022-08-22T08:15:08.389Z,3.23
2022-08-22T08:17:31.416Z,4.03
2022-08-22T08:19:36.335Z,3.13
2022-08-22T08:21:42.531Z,4.30
2022-08-22T08:23:46.326Z,3.50
2022-08-22T08:26:10.757Z,3.30
2022-08-22T08:28:31.301Z,2.90
2022-08-22T08:30:33.285Z,3.03
2022-08-22T08:32:36.330Z,3.67
2022-08-22T08:34:40.021Z,3.20
2022-08-22T08:36:55.149Z,3.47
2022-08-22T08:39:14.008Z,3.17
2022-08-22T08:41:47.497Z,3.40
2022-08-22T08:44:19.833Z,3.00
2022-08-22T08:46:30.869Z,3.10
2022-08-22T08:49:06.572Z,2.87
2022-08-22T08:51:36.483Z,3.50
2022-08-22T08:54:00.897Z,3.10
2022-08-22T08:56:19.903Z,2.43
2022-08-22T09:01:19.609Z,3.10
2022-08-22T09:03:46.103Z,3.00
2022-08-22T09:06:32.717Z,2.80
2022-08-22T09:09:05.691Z,2.80
2022-08-22T09:11:31.065Z,2.50
2022-08-22T09:13:41.618Z,2.93
2022-08-22T09:16:04.851Z,2.60
2022-08-22T09:18:19.084Z,2.50
2022-08-22T09:20:25.395Z,2.47
2022-08-22T09:23:04.966Z,5.67
2022-08-22T09:25:29.672Z,6.17
2022-08-22T09:28:02.998Z,2.50
2022-08-22T09:30:11.818Z,2.47
2022-08-22T09:32:33.773Z,2.43
2022-08-22T09:34:53.394Z,2.70
2022-08-22T09:37:08.486Z,2.80
2022-08-22T09:39:24.624Z,2.30
2022-08-22T09:41:36.483Z,1.97
2022-08-22T09:43:54.435Z,2.40
2022-08-22T09:45:57.486Z,2.70
2022-08-22T09:48:12.814Z,2.03
2022-08-22T09:50:46.699Z,2.20
2022-08-22T09:52:57.097Z,2.00
2022-08-22T09:55:15.841Z,1.90
2022-08-22T09:57:38.974Z,2.20
2022-08-22T10:00:22.159Z,2.20
2022-08-22T10:02:43.312Z,2.10
2022-08-22T10:05:10.741Z,2.53
2022-08-22T10:07:32.650Z,1.77
2022-08-22T10:09:48.159Z,2.20
2022-08-22T10:12:04.117Z,2.30
2022-08-22T10:14:15.102Z,1.90
2022-08-22T10:16:47.309Z,2.20
2022-08-22T10:18:54.760Z,2.33
2022-08-22T10:21:17.402Z,1.70
2022-08-22T10:23:31.558Z,2.00
2022-08-22T10:25:50.054Z,1.90
2022-08-22T10:27:56.803Z,2.73
2022-08-22T10:30:16.419Z,1.87
2022-08-22T10:32:19.770Z,2.30
2022-08-22T10:34:36.134Z,2.27
2022-08-22T10:36:54.218Z,2.00
2022-08-22T10:39:00.192Z,2.10
2022-08-22T10:41:02.438Z,2.13
2022-08-22T10:43:15.102Z,2.00
2022-08-22T10:45:35.213Z,1.90
2022-08-22T10:47:45.111Z,2.20
2022-08-22T10:50:04.010Z,2.23
2022-08-22T10:52:20.933Z,1.90
2022-08-22T10:54:56.533Z,2.10
2022-08-22T10:57:20.671Z,2.03
2022-08-22T10:59:32.076Z,2.10
2022-08-22T11:01:46.601Z,2.10
2022-08-22T11:04:16.843Z,2.40
2022-08-22T11:06:25.074Z,2.07
2022-08-22T11:08:50.870Z,1.70
2022-08-22T11:11:06.685Z,2.00
2022-08-22T11:13:17.721Z,2.20
2022-08-22T11:16:08.174Z,2.03
2022-08-22T11:18:33.114Z,2.13
2022-08-22T11:20:56.614Z,2.43
2022-08-22T11:23:36.461Z,2.17
2022-08-22T11:25:53.723Z,2.70
2022-08-22T11:28:31.692Z,2.70
2022-08-22T11:30:52.172Z,1.90
2022-08-22T11:33:16.666Z,2.70
2022-08-22T11:35:23.983Z,2.53
2022-08-22T11:37:42.245Z,2.23
2022-08-22T11:40:17.585Z,2.13
2022-08-22T11:42:31.933Z,2.43
2022-08-22T11:44:50.037Z,2.20
2022-08-22T11:46:57.332Z,2.50
2022-08-22T11:49:00.194Z,2.10
2022-08-22T11:51:25.070Z,2.17
2022-08-22T11:53:35.372Z,2.20
2022-08-22T11:55:49.676Z,2.03
2022-08-22T11:58:25.507Z,1.93
2022-08-22T12:00:38.187Z,2.50
2022-08-22T12:03:05.121Z,2.07
2022-08-22T12:05:21.573Z,2.00
2022-08-22T12:07:31.302Z,2.60
2022-08-22T12:09:55.270Z,1.97
2022-08-22T12:12:12.612Z,2.73
2022-08-22T12:14:27.059Z,2.60
2022-08-22T12:17:26.291Z,2.53
2022-08-22T12:20:16.024Z,2.37
2022-08-22T12:22:56.488Z,2.30
2022-08-22T12:25:48.823Z,2.20
2022-08-22T12:27:57.188Z,2.57
2022-08-22T12:30:27.641Z,2.33
2022-08-22T12:32:44.077Z,1.93
2022-08-22T12:35:13.855Z,2.90
2022-08-22T12:37:44.856Z,2.30
2022-08-22T12:40:13.852Z,2.40
2022-08-22T12:42:25.087Z,2.70
2022-08-22T12:44:36.316Z,2.00
2022-08-22T12:47:02.590Z,1.80
2022-08-22T12:49:49.833Z,2.20
2022-08-22T12:52:31.839Z,1.80
2022-08-22T12:54:45.232Z,2.20
2022-08-22T12:57:23.968Z,2.00
2022-08-22T12:59:32.900Z,2.10
2022-08-22T13:01:40.164Z,2.27
2022-08-22T13:03:52.673Z,2.13
2022-08-22T13:05:57.011Z,2.07
2022-08-22T13:08:09.920Z,2.40
2022-08-22T13:10:17.451Z,1.93
2022-08-22T13:12:29.714Z,2.20
2022-08-22T13:14:34.018Z,2.03
2022-08-22T13:16:49.069Z,2.07
2022-08-22T13:18:54.086Z,2.33
2022-08-22T13:20:57.130Z,2.87
2022-08-22T13:23:24.896Z,1.87
2022-08-22T13:25:30.310Z,2.03
2022-08-22T13:28:03.387Z,2.27
2022-08-22T13:30:16.999Z,2.50
2022-08-22T13:32:33.887Z,2.63
2022-08-22T13:34:40.547Z,1.80
2022-08-22T13:36:52.142Z,2.13
2022-08-22T13:39:12.658Z,1.67
2022-08-22T13:41:32.461Z,2.60
2022-08-22T13:43:54.886Z,2.40
2022-08-22T13:46:03.879Z,2.17
2022-08-22T13:48:12.707Z,2.07
2022-08-22T13:50:20.158Z,2.13
2022-08-22T13:52:39.365Z,1.90
2022-08-22T13:55:02.647Z,1.90
2022-08-22T13:57:26.160Z,2.33
2022-08-22T13:59:53.132Z,1.70
2022-08-22T14:02:17.913Z,2.30
2022-08-22T14:04:35.895Z,2.00
2022-08-22T14:06:46.887Z,2.20
2022-08-22T14:08:49.584Z,2.17
2022-08-22T14:10:57.866Z,2.20
2022-08-22T14:13:36.692Z,2.30
2022-08-22T14:15:45.836Z,1.87
2022-08-22T14:17:50.815Z,1.97
2022-08-22T14:19:58.989Z,1.87
2022-08-22T14:22:18.211Z,1.60
2022-08-22T14:24:25.730Z,2.43
2022-08-22T14:26:37.490Z,2.13
2022-08-22T14:28:49.937Z,2.00
2022-08-22T14:30:59.499Z,2.10
2022-08-22T14:33:25.541Z,2.30
2022-08-22T14:35:35.071Z,1.93
2022-08-22T14:37:42.781Z,2.13
2022-08-22T14:39:51.178Z,2.30
2022-08-22T14:42:04.115Z,1.93
2022-08-22T14:44:12.282Z,2.27
2022-08-22T14:46:20.318Z,2.20
2022-08-22T14:48:30.385Z,2.40
2022-08-22T14:50:53.136Z,1.83
2022-08-22T14:53:11.952Z,2.10
2022-08-22T14:55:23.133Z,2.10
2022-08-22T14:57:25.274Z,2.63
2022-08-22T14:59:37.599Z,1.93
2022-08-22T15:02:00.772Z,2.53
2022-08-22T15:04:06.756Z,2.27
2022-08-22T15:06:16.956Z,2.13
2022-08-22T15:08:28.321Z,1.97
2022-08-22T15:10:33.191Z,2.07
2022-08-22T15:12:49.795Z,2.37
2022-08-22T15:14:55.469Z,2.40
2022-08-22T15:17:01.518Z,2.43
2022-08-22T15:19:22.943Z,2.30
2022-08-22T15:21:28.383Z,2.00
2022-08-22T15:23:32.021Z,2.23
2022-08-22T15:25:37.118Z,2.17
2022-08-22T15:28:17.170Z,2.27
2022-08-22T15:30:44.157Z,2.10
2022-08-22T15:32:48.997Z,3.40
2022-08-22T15:34:52.510Z,2.40
2022-08-22T15:37:09.943Z,2.00
2022-08-22T15:39:29.363Z,2.50
2022-08-22T15:41:36.989Z,2.83
2022-08-22T15:43:45.630Z,2.53
2022-08-22T15:45:49.707Z,3.03
2022-08-22T15:47:54.070Z,2.50
2022-08-22T15:50:00.451Z,2.10
2022-08-22T15:52:02.487Z,2.60
2022-08-22T15:54:51.097Z,2.60
2022-08-22T15:56:53.686Z,2.77
2022-08-22T15:59:24.458Z,2.33
2022-08-22T16:01:28.171Z,2.63
2022-08-22T16:03:33.579Z,2.00
2022-08-22T16:05:55.231Z,2.17
2022-08-22T16:07:57.627Z,3.20
2022-08-22T16:10:00.501Z,2.33
2022-08-22T16:12:06.721Z,2.63
2022-08-22T16:14:35.927Z,2.27
2022-08-22T16:16:50.043Z,2.43
2022-08-22T16:18:52.100Z,2.33
2022-08-22T16:20:54.865Z,2.50
2022-08-22T16:22:57.039Z,2.13
2022-08-22T16:25:01.493Z,2.30
2022-08-22T16:27:23.930Z,2.20
2022-08-22T16:29:38.863Z,2.03
2022-08-22T16:31:43.891Z,2.20
2022-08-22T16:33:47.064Z,2.07
2022-08-22T16:36:27.027Z,2.63
2022-08-22T16:38:37.116Z,2.50
2022-08-22T16:40:47.427Z,2.13
2022-08-22T16:43:13.739Z,2.03
2022-08-22T16:45:30.898Z,2.53
2022-08-22T16:47:32.937Z,2.50
2022-08-22T16:49:52.357Z,2.20
2022-08-22T16:52:25.623Z,2.30
2022-08-22T16:54:46.252Z,2.20
2022-08-22T16:57:00.817Z,2.67
2022-08-22T16:59:28.720Z,2.30
2022-08-22T17:01:48.018Z,2.50
2022-08-22T17:03:53.415Z,2.30
2022-08-22T17:06:12.413Z,2.30
2022-08-22T17:08:48.507Z,2.33
2022-08-22T17:11:16.876Z,2.03
2022-08-22T17:13:44.586Z,2.60
2022-08-22T17:16:03.330Z,2.20
2022-08-22T17:18:20.617Z,1.97
2022-08-22T17:21:00.174Z,2.07
2022-08-22T17:23:22.545Z,2.90
2022-08-22T17:26:05.970Z,2.47
2022-08-22T17:28:19.841Z,2.40
2022-08-22T17:30:34.908Z,2.10
2022-08-22T17:32:46.021Z,2.30
2022-08-22T17:35:07.455Z,2.60
2022-08-22T17:37:26.018Z,2.30
2022-08-22T17:40:05.703Z,2.03
2022-08-22T17:42:28.181Z,1.93
2022-08-22T17:44:46.862Z,2.60
2022-08-22T17:47:16.155Z,2.30
2022-08-22T17:49:45.119Z,2.50
2022-08-22T17:52:15.283Z,2.00
2022-08-22T17:54:33.883Z,2.30
2022-08-22T17:57:06.342Z,2.10
2022-08-22T17:59:34.271Z,2.60
2022-08-22T18:01:48.550Z,1.80
2022-08-22T18:03:58.852Z,2.13
2022-08-22T18:06:21.214Z,3.10
2022-08-22T18:08:37.743Z,2.40
2022-08-22T18:10:46.745Z,2.00
2022-08-22T18:13:26.858Z,2.40
2022-08-22T18:15:32.317Z,2.20
2022-08-22T18:17:51.258Z,2.67
2022-08-22T18:20:04.834Z,2.40
2022-08-22T18:22:19.052Z,2.10
2022-08-22T18:24:33.205Z,2.40
2022-08-22T18:26:46.413Z,2.20
2022-08-22T18:29:03.705Z,2.70
2022-08-22T18:31:38.338Z,2.60
2022-08-22T18:34:01.042Z,2.07
2022-08-22T18:36:26.509Z,2.40
2022-08-22T18:39:04.921Z,2.17
2022-08-22T18:41:13.654Z,2.50
2022-08-22T18:43:24.066Z,2.50
2022-08-22T18:45:44.687Z,2.50
2022-08-22T18:47:56.946Z,2.80
2022-08-22T18:50:01.367Z,2.77
2022-08-22T18:52:15.226Z,1.97
2022-08-22T18:54:20.079Z,2.53
2022-08-22T18:56:28.363Z,2.30
2022-08-22T18:58:40.706Z,2.57
2022-08-22T19:01:18.728Z,2.40
2022-08-22T19:03:39.444Z,2.07
2022-08-22T19:06:19.060Z,2.20
2022-08-22T19:08:53.483Z,2.40
2022-08-22T19:11:42.081Z,2.80
2022-08-22T19:14:18.453Z,2.90
2022-08-22T19:16:41.923Z,2.43
2022-08-22T19:18:55.145Z,3.07
2022-08-22T19:21:40.289Z,2.60
2022-08-22T19:23:43.955Z,2.77
2022-08-22T19:26:23.889Z,2.90
2022-08-22T19:28:35.983Z,2.87
2022-08-22T19:30:52.596Z,2.63
2022-08-22T19:33:01.582Z,3.20
2022-08-22T19:35:22.496Z,2.70
2022-08-22T19:37:32.904Z,2.67
2022-08-22T19:39:42.243Z,3.20
2022-08-22T19:41:56.945Z,3.07
2022-08-22T19:43:59.225Z,2.73
2022-08-22T19:46:07.613Z,3.70
2022-08-22T19:48:14.219Z,3.50
2022-08-22T19:50:27.402Z,3.23
2022-08-22T19:52:57.950Z,3.70
2022-08-22T19:55:28.678Z,2.90
2022-08-22T19:57:52.323Z,3.30
2022-08-22T20:00:04.999Z,3.33
2022-08-22T20:02:35.660Z,3.33
2022-08-22T20:05:12.351Z,3.20
2022-08-22T20:07:36.432Z,3.40
2022-08-22T20:10:00.960Z,4.10
2022-08-22T20:12:15.566Z,4.23
2022-08-22T20:14:30.741Z,4.20
2022-08-22T20:16:54.913Z,4.20
2022-08-22T20:19:16.607Z,4.53
2022-08-22T20:21:54.832Z,5.90
2022-08-22T20:23:56.986Z,5.37
2022-08-22T20:25:59.642Z,5.40
2022-08-22T20:28:04.992Z,4.30
2022-08-22T20:30:12.450Z,4.77
2022-08-22T20:32:17.685Z,4.47
2022-08-22T20:34:23.752Z,4.90
2022-08-22T20:36:28.875Z,4.60
2022-08-22T20:38:35.335Z,5.87
2022-08-22T20:40:56.136Z,6.00
2022-08-22T20:43:10.422Z,6.00
2022-08-22T20:45:17.036Z,6.03
2022-08-22T20:47:23.988Z,6.90
2022-08-22T20:49:32.871Z,6.50
2022-08-22T20:51:35.510Z,5.57
2022-08-22T20:53:38.096Z,5.10
2022-08-22T20:55:40.279Z,5.27
2022-08-22T20:57:54.039Z,5.50
2022-08-22T21:00:11.664Z,4.80
2022-08-22T21:02:16.143Z,5.10
2022-08-22T21:04:19.783Z,4.67
2022-08-22T21:06:30.737Z,4.10
2022-08-22T21:08:32.842Z,5.17
2022-08-22T21:10:56.038Z,4.67
2022-08-22T21:13:10.547Z,4.43
2022-08-22T21:15:12.834Z,3.90
2022-08-22T21:17:34.533Z,4.47
2022-08-22T21:19:41.415Z,3.93
2022-08-22T21:21:43.529Z,4.50
2022-08-22T21:23:47.928Z,3.73
2022-08-22T21:26:04.742Z,4.27
2022-08-22T21:28:06.902Z,3.60
2022-08-22T21:30:09.871Z,4.10
2022-08-22T21:32:24.489Z,4.07
2022-08-22T21:34:51.994Z,4.73
2022-08-22T21:36:57.945Z,4.50
2022-08-22T21:39:16.300Z,4.20
2022-08-22T21:41:41.167Z,4.40
2022-08-22T21:43:48.217Z,5.20
2022-08-22T21:45:56.112Z,4.67
2022-08-22T21:47:58.817Z,4.60
2022-08-22T21:50:13.291Z,4.47
2022-08-22T21:52:26.901Z,4.50
2022-08-22T21:54:39.679Z,4.10
2022-08-22T21:56:41.789Z,4.17
2022-08-22T21:58:46.404Z,4.50
2022-08-22T22:00:54.874Z,4.07
2022-08-22T22:03:01.021Z,5.30
2022-08-22T22:05:16.347Z,5.07
2022-08-22T22:07:19.227Z,4.80
2022-08-22T22:09:21.395Z,4.47
2022-08-22T22:11:23.588Z,4.87
2022-08-22T22:13:27.157Z,4.20
2022-08-22T22:15:34.273Z,4.57
2022-08-22T22:17:36.436Z,4.63
2022-08-22T22:19:38.708Z,4.30
2022-08-22T22:21:40.843Z,4.70
2022-08-22T22:23:43.081Z,4.07
2022-08-22T22:25:45.745Z,4.33
2022-08-22T22:27:48.594Z,4.47
2022-08-22T22:29:51.233Z,4.10
2022-08-22T22:31:53.364Z,4.67
2022-08-22T22:33:55.624Z,4.53
2022-08-22T22:36:00.025Z,4.60
2022-08-22T22:38:02.434Z,4.77
2022-08-22T22:40:07.608Z,5.00
2022-08-22T22:42:09.931Z,4.70
2022-08-22T22:44:12.062Z,4.80
2022-08-22T22:46:14.241Z,5.00
2022-08-22T22:48:23.838Z,5.00
2022-08-22T22:50:27.144Z,4.80
2022-08-22T22:52:29.360Z,5.60
2022-08-22T22:54:31.561Z,4.80
2022-08-22T22:56:36.297Z,5.00
2022-08-22T22:58:41.247Z,4.63
2022-08-22T23:00:44.530Z,4.53
2022-08-22T23:02:48.608Z,4.13
2022-08-22T23:04:55.673Z,4.17
2022-08-22T23:06:57.750Z,4.70
2022-08-22T23:08:59.758Z,4.57
2022-08-22T23:11:09.331Z,4.63
2022-08-22T23:13:11.471Z,4.77
2022-08-22T23:15:13.576Z,4.87
2022-08-22T23:17:16.254Z,4.87
2022-08-22T23:19:18.987Z,5.70
2022-08-22T23:21:26.668Z,5.00
2022-08-22T23:23:28.613Z,5.50
2022-08-22T23:25:30.615Z,5.60
2022-08-22T23:27:32.657Z,4.87
2022-08-22T23:29:34.760Z,5.90
2022-08-22T23:31:43.375Z,5.73
2022-08-22T23:33:45.878Z,6.20
2022-08-22T23:35:47.923Z,5.53
2022-08-22T23:37:49.967Z,5.37
2022-08-22T23:39:52.059Z,5.77
2022-08-22T23:41:54.808Z,5.60
2022-08-22T23:43:56.842Z,4.93
2022-08-22T23:45:58.827Z,5.17
2022-08-22T23:48:01.165Z,5.60
2022-08-22T23:50:05.927Z,5.37
2022-08-22T23:52:10.437Z,5.83
2022-08-22T23:54:12.648Z,5.37
2022-08-22T23:56:26.720Z,5.47
2022-08-22T23:58:28.733Z,5.30
